Time;durP1;ratioP1;P1;durP2;ratioP2;P2;SDS_P1;SDS_P2;PMS_P1;PMS_P2;Temp;Humidity;BMP_temperature;BMP_pressure;BME280_temperature;BME280_humidity;BME280_pressure;Samples;Min_cycle;Max_cycle;Signal;HPM_P1;HPM_P2
2021/12/17 00:02:11;;;;;;;4.75;3.67;;;;;;;;;;5074015;28;20476;-63
2021/12/17 00:04:36;;;;;;;8.38;4.45;;;;;;;;;;5073875;28;20044;-64
2021/12/17 00:07:14;;;;;;;8.57;3.88;;;;;;;;;;5072959;28;20045;-63
2021/12/17 00:09:41;;;;;;;5.80;3.75;;;;;;;;;;5072641;28;20040;-64
2021/12/17 00:12:11;;;;;;;7.07;4.07;;;;;;;;;;5073839;28;20024;-64
2021/12/17 00:14:38;;;;;;;6.38;3.58;;;;;;;;;;5072639;28;20094;-64
2021/12/17 00:17:07;;;;;;;6.53;3.72;;;;;;;;;;5073888;28;20555;-64
2021/12/17 00:52:18;;;;;;;5.72;3.53;;;;;;;;;;5073246;28;20040;-64
2021/12/17 00:54:45;;;;;;;6.20;3.50;;;;;;;;;;5073502;28;20031;-61
2021/12/17 00:57:18;;;;;;;6.85;3.47;;;;;;;;;;5072328;28;20482;-61
2021/12/17 00:59:46;;;;;;;6.88;3.42;;;;;;;;;;5072306;28;20036;-61
2021/12/17 01:02:14;;;;;;;4.05;3.17;;;;;;;;;;5071854;28;20025;-61
2021/12/17 01:04:49;;;;;;;6.90;3.08;;;;;;;;;;5072446;28;20403;-61
2021/12/17 01:07:15;;;;;;;5.07;2.78;;;;;;;;;;5076264;28;20036;-61
2021/12/17 01:09:42;;;;;;;6.57;3.28;;;;;;;;;;5059496;28;20029;-60
2021/12/17 01:12:09;;;;;;;5.18;3.13;;;;;;;;;;5076223;28;20490;-60
2021/12/17 01:14:52;;;;;;;4.97;3.10;;;;;;;;;;5076267;28;20036;-60
2021/12/17 01:17:24;;;;;;;5.75;3.00;;;;;;;;;;5076029;28;20044;-60
2021/12/17 01:25:36;;;;;;;6.85;3.30;;;;;;;;;;5076063;28;20032;-63
2021/12/17 01:42:44;;;;;;;5.93;3.15;;;;;;;;;;5066940;28;20063;-65
2021/12/17 01:45:09;;;;;;;5.72;3.08;;;;;;;;;;5076457;28;20044;-64
2021/12/17 01:47:35;;;;;;;4.90;3.05;;;;;;;;;;5076533;28;20044;-63
2021/12/17 02:01:17;;;;;;;7.15;3.22;;;;;;;;;;5017812;28;20383;-64
2021/12/17 02:03:44;;;;;;;8.02;3.35;;;;;;;;;;5017866;28;20026;-64
2021/12/17 02:06:09;;;;;;;6.72;3.10;;;;;;;;;;5042411;28;20045;-64
2021/12/17 02:08:36;;;;;;;6.88;3.70;;;;;;;;;;5074894;28;20029;-64
2021/12/17 02:32:53;;;;;;;4.40;3.05;;;;;;;;;;5074698;28;20028;-61
2021/12/17 02:35:29;;;;;;;7.22;3.58;;;;;;;;;;5074732;28;20077;-61
2021/12/17 02:37:55;;;;;;;5.82;2.85;;;;;;;;;;5075937;28;20475;-60
2021/12/17 02:46:40;;;;;;;6.35;3.25;;;;;;;;;;5074659;28;20123;-60
2021/12/17 02:49:06;;;;;;;6.85;3.00;;;;;;;;;;5057610;28;20481;-60
2021/12/17 02:51:32;;;;;;;5.50;2.95;;;;;;;;;;5074008;28;20033;-60
2021/12/17 02:53:58;;;;;;;7.40;3.42;;;;;;;;;;5075514;28;20360;-60
2021/12/17 02:56:24;;;;;;;5.60;3.05;;;;;;;;;;5075451;28;20048;-60
2021/12/17 02:58:50;;;;;;;7.85;3.15;;;;;;;;;;5075408;28;20067;-61
2021/12/17 03:01:16;;;;;;;6.93;3.20;;;;;;;;;;5073930;28;20397;-61
2021/12/17 03:03:44;;;;;;;8.95;3.40;;;;;;;;;;5074122;28;20038;-60
2021/12/17 03:06:09;;;;;;;6.88;3.25;;;;;;;;;;5073442;28;20435;-61
2021/12/17 03:08:35;;;;;;;7.13;3.30;;;;;;;;;;5073933;28;20083;-61
2021/12/17 03:11:01;;;;;;;6.60;3.03;;;;;;;;;;5073725;28;20081;-60
2021/12/17 03:13:28;;;;;;;5.82;3.13;;;;;;;;;;5074841;28;20044;-62
2021/12/17 03:15:59;;;;;;;5.90;2.97;;;;;;;;;;5074907;28;20025;-60
2021/12/17 03:18:58;;;;;;;5.80;3.17;;;;;;;;;;5075012;28;20123;-60
2021/12/17 03:24:08;;;;;;;6.28;2.97;;;;;;;;;;5073655;28;20074;-60
2021/12/17 03:26:34;;;;;;;9.15;3.25;;;;;;;;;;5072334;28;20101;-60
2021/12/17 03:29:24;;;;;;;4.28;2.53;;;;;;;;;;5073485;28;20043;-60
2021/12/17 03:32:06;;;;;;;4.22;2.92;;;;;;;;;;5059279;28;20448;-61
2021/12/17 03:34:33;;;;;;;6.82;2.80;;;;;;;;;;5073323;28;20072;-60
2021/12/17 03:37:29;;;;;;;5.93;3.03;;;;;;;;;;5073351;28;20119;-60
2021/12/17 03:40:06;;;;;;;4.43;2.60;;;;;;;;;;5056650;28;20086;-61
2021/12/17 03:42:48;;;;;;;5.88;2.65;;;;;;;;;;5074401;28;20032;-60
2021/12/17 03:45:28;;;;;;;10.02;3.15;;;;;;;;;;5073125;28;20406;-65
2021/12/17 03:48:23;;;;;;;4.93;2.65;;;;;;;;;;5073239;28;20033;-60
2021/12/17 03:51:24;;;;;;;5.05;2.58;;;;;;;;;;5074166;28;20139;-61
2021/12/17 03:53:59;;;;;;;6.25;3.20;;;;;;;;;;5073437;28;20036;-60
2021/12/17 03:56:48;;;;;;;6.03;3.15;;;;;;;;;;5072904;28;20115;-60
2021/12/17 03:59:42;;;;;;;8.98;3.17;;;;;;;;;;5056603;28;20029;-60
2021/12/17 04:02:37;;;;;;;7.15;3.38;;;;;;;;;;5058215;28;20391;-61
2021/12/17 04:05:31;;;;;;;12.27;3.90;;;;;;;;;;5059802;28;20036;-60
2021/12/17 04:08:50;;;;;;;5.32;3.00;;;;;;;;;;5074231;28;20132;-60
2021/12/17 04:11:30;;;;;;;8.65;3.60;;;;;;;;;;5057801;28;20487;-60
2021/12/17 04:14:10;;;;;;;6.18;2.95;;;;;;;;;;5057646;28;20371;-60
2021/12/17 04:17:01;;;;;;;8.02;3.00;;;;;;;;;;5072572;28;20033;-60
2021/12/17 04:19:27;;;;;;;8.20;2.97;;;;;;;;;;5072748;28;20043;-60
2021/12/17 04:21:52;;;;;;;7.53;3.42;;;;;;;;;;5073916;28;20028;-60
2021/12/17 04:24:18;;;;;;;5.45;3.03;;;;;;;;;;5074091;28;20421;-59
2021/12/17 04:26:43;;;;;;;5.93;3.03;;;;;;;;;;5071951;28;20044;-61
2021/12/17 04:29:17;;;;;;;5.40;3.13;;;;;;;;;;5073792;28;20042;-61
2021/12/17 04:31:52;;;;;;;8.02;3.45;;;;;;;;;;5072246;28;20471;-62
2021/12/17 04:34:18;;;;;;;5.70;2.50;;;;;;;;;;5072493;28;20032;-61
2021/12/17 04:36:45;;;;;;;4.28;3.00;;;;;;;;;;5074019;28;20375;-62
2021/12/17 04:39:18;;;;;;;10.00;3.40;;;;;;;;;;5072087;28;20382;-62
2021/12/17 04:44:53;;;;;;;6.15;3.03;;;;;;;;;;5072259;28;20064;-61
2021/12/17 04:58:37;;;;;;;8.02;3.28;;;;;;;;;;5072253;28;20071;-67
2021/12/17 05:01:09;;;;;;;9.25;3.42;;;;;;;;;;5071129;28;20127;-65
2021/12/17 05:03:37;;;;;;;8.20;3.17;;;;;;;;;;5071994;28;20051;-65
2021/12/17 05:06:03;;;;;;;6.25;3.30;;;;;;;;;;5071289;28;20024;-65
2021/12/17 05:08:37;;;;;;;5.40;3.10;;;;;;;;;;5071755;28;20185;-65
2021/12/17 05:11:38;;;;;;;5.38;3.13;;;;;;;;;;5071961;28;20398;-65
2021/12/17 05:19:52;;;;;;;6.18;3.10;;;;;;;;;;5072088;28;20040;-65
2021/12/17 05:22:18;;;;;;;9.45;3.20;;;;;;;;;;5071967;28;20071;-65
2021/12/17 05:24:44;;;;;;;5.18;3.00;;;;;;;;;;5071666;28;20528;-64
2021/12/17 05:27:10;;;;;;;6.55;2.88;;;;;;;;;;5070594;28;20120;-64
2021/12/17 05:29:46;;;;;;;4.93;3.00;;;;;;;;;;5071848;28;20047;-64
2021/12/17 05:32:12;;;;;;;6.13;2.80;;;;;;;;;;5071613;28;20045;-64
2021/12/17 05:34:37;;;;;;;6.60;3.10;;;;;;;;;;5071769;28;20021;-64
2021/12/17 05:37:08;;;;;;;6.63;3.17;;;;;;;;;;5071547;28;20040;-64
2021/12/17 05:39:33;;;;;;;6.07;2.67;;;;;;;;;;5071807;28;20447;-63
2021/12/17 05:42:01;;;;;;;5.25;2.70;;;;;;;;;;5071423;28;20604;-64
2021/12/17 05:45:09;;;;;;;;;;;;;;;;;;5062054;28;20131;-63
2021/12/17 05:47:34;;;;;;;3.60;2.35;;;;;;;;;;5071720;28;19909;-64
2021/12/17 05:50:00;;;;;;;3.17;1.95;;;;;;;;;;5071499;28;20024;-64
2021/12/17 05:52:25;;;;;;;5.10;2.53;;;;;;;;;;5072716;28;20479;-64
2021/12/17 05:54:50;;;;;;;5.85;2.72;;;;;;;;;;5074692;28;20039;-65
2021/12/17 05:57:16;;;;;;;7.10;2.92;;;;;;;;;;5075428;28;20458;-64
2021/12/17 05:59:45;;;;;;;4.65;2.47;;;;;;;;;;5075145;28;20023;-63
2021/12/17 06:02:11;;;;;;;6.82;2.70;;;;;;;;;;5058545;28;20044;-64
2021/12/17 06:04:42;;;;;;;6.18;3.17;;;;;;;;;;5075112;28;20033;-65
2021/12/17 06:07:07;;;;;;;7.63;3.20;;;;;;;;;;5074660;28;20037;-65
2021/12/17 06:09:36;;;;;;;8.18;2.90;;;;;;;;;;5074835;28;20028;-64
2021/12/17 06:12:06;;;;;;;6.18;2.50;;;;;;;;;;5074722;28;20040;-65
2021/12/17 06:14:32;;;;;;;7.72;2.88;;;;;;;;;;5075986;28;20032;-64
2021/12/17 06:16:57;;;;;;;5.90;2.95;;;;;;;;;;5074502;28;20024;-64
2021/12/17 06:19:30;;;;;;;11.18;4.32;;;;;;;;;;5074649;28;20469;-65
2021/12/17 06:21:58;;;;;;;6.43;3.20;;;;;;;;;;5074586;28;20070;-64
2021/12/17 06:24:24;;;;;;;4.65;3.33;;;;;;;;;;5074618;28;20025;-64
2021/12/17 06:26:50;;;;;;;5.93;3.08;;;;;;;;;;5075274;28;20028;-65
2021/12/17 06:29:16;;;;;;;6.00;3.00;;;;;;;;;;5074685;28;20040;-64
2021/12/17 06:31:44;;;;;;;6.55;2.88;;;;;;;;;;5074264;28;20402;-64
2021/12/17 06:34:09;;;;;;;7.13;3.30;;;;;;;;;;5074314;28;20044;-60
2021/12/17 06:36:35;;;;;;;6.88;3.35;;;;;;;;;;5074484;28;20089;-60
2021/12/17 06:39:01;;;;;;;5.40;2.78;;;;;;;;;;5074251;28;20039;-60
2021/12/17 06:41:29;;;;;;;5.85;2.92;;;;;;;;;;5057249;28;20034;-60
2021/12/17 06:43:57;;;;;;;4.75;2.72;;;;;;;;;;5075259;28;20032;-61
2021/12/17 06:46:34;;;;;;;6.78;3.03;;;;;;;;;;5073736;28;20107;-60
2021/12/17 07:07:43;;;;;;;14.30;6.10;;;;;;;;;;5058345;28;20486;-60
2021/12/17 07:17:48;;;;;;;7.43;3.08;;;;;;;;;;5073273;28;20024;-60
2021/12/17 07:23:49;;;;;;;8.23;3.67;;;;;;;;;;5072915;28;20483;-60
2021/12/17 07:34:11;;;;;;;6.78;3.28;;;;;;;;;;5046408;28;20029;-61
2021/12/17 07:38:35;;;;;;;7.20;3.17;;;;;;;;;;5072981;28;20037;-60
2021/12/17 07:39:33;;;;;;;8.40;3.20;;;;;;;;;;5067593;28;20502;-60
2021/12/17 07:42:18;;;;;;;5.57;2.72;;;;;;;;;;5073791;28;20494;-61
2021/12/17 07:44:53;;;;;;;9.68;3.85;;;;;;;;;;5073601;28;20041;-60
2021/12/17 07:47:22;;;;;;;7.60;2.92;;;;;;;;;;5073583;28;20044;-60
2021/12/17 07:50:06;;;;;;;7.97;3.13;;;;;;;;;;5074346;28;20485;-60
2021/12/17 07:52:35;;;;;;;7.00;3.45;;;;;;;;;;5072283;28;20097;-61
2021/12/17 07:55:00;;;;;;;9.68;4.10;;;;;;;;;;5073821;28;20107;-61
2021/12/17 07:57:26;;;;;;;11.70;4.05;;;;;;;;;;5072161;28;20149;-61
2021/12/17 07:59:52;;;;;;;31.00;15.13;;;;;;;;;;5072405;28;20026;-61
2021/12/17 08:02:18;;;;;;;9.88;3.55;;;;;;;;;;5072511;28;20106;-61
2021/12/17 08:04:53;;;;;;;27.27;15.73;;;;;;;;;;5072493;28;20424;-61
2021/12/17 08:07:21;;;;;;;9.57;3.90;;;;;;;;;;5072730;28;20450;-61
2021/12/17 08:09:48;;;;;;;10.68;4.43;;;;;;;;;;5072616;28;20140;-61
2021/12/17 08:12:13;;;;;;;11.98;6.07;;;;;;;;;;5073610;28;20115;-61
2021/12/17 08:14:54;;;;;;;7.45;3.50;;;;;;;;;;5070686;28;20021;-61
2021/12/17 08:25:39;;;;;;;8.18;4.30;;;;;;;;;;5071881;28;20043;-61
2021/12/17 08:28:07;;;;;;;8.77;4.88;;;;;;;;;;5071163;28;20179;-62
2021/12/17 08:30:40;;;;;;;11.20;3.95;;;;;;;;;;5071963;28;20135;-62
2021/12/17 08:33:18;;;;;;;59.08;23.10;;;;;;;;;;5071914;28;20032;-62
2021/12/17 08:35:44;;;;;;;59.33;19.50;;;;;;;;;;5071355;28;20032;-61
2021/12/17 08:38:19;;;;;;;9.15;4.18;;;;;;;;;;5071265;28;20036;-62
2021/12/17 08:40:50;;;;;;;23.55;8.98;;;;;;;;;;5070663;28;20041;-62
2021/12/17 08:43:15;;;;;;;;;;;;;;;;;;5071577;28;20076;-61
2021/12/17 08:45:46;;;;;;;11.23;4.63;;;;;;;;;;5071255;28;19927;-61
2021/12/17 08:48:20;;;;;;;29.75;10.52;;;;;;;;;;5073032;28;20417;-61
2021/12/17 08:50:56;;;;;;;71.80;24.52;;;;;;;;;;5071505;28;20036;-61
2021/12/17 08:53:21;;;;;;;447.50;177.10;;;;;;;;;;5071572;28;20402;-61
2021/12/17 08:55:47;;;;;;;15.40;6.72;;;;;;;;;;5071245;28;20024;-61
2021/12/17 08:58:14;;;;;;;14.68;5.93;;;;;;;;;;5072985;28;20078;-61
2021/12/17 09:00:41;;;;;;;9.50;4.03;;;;;;;;;;5054999;28;20487;-61
2021/12/17 09:03:09;;;;;;;9.40;4.05;;;;;;;;;;5071664;28;20127;-61
2021/12/17 09:05:48;;;;;;;14.52;5.60;;;;;;;;;;5071756;28;20486;-61
2021/12/17 09:08:21;;;;;;;10.32;4.25;;;;;;;;;;5071694;28;20487;-61
2021/12/17 09:10:55;;;;;;;10.40;4.05;;;;;;;;;;5071522;28;20040;-61
2021/12/17 09:13:26;;;;;;;13.43;6.18;;;;;;;;;;5071422;28;20549;-61
2021/12/17 09:15:56;;;;;;;11.30;6.18;;;;;;;;;;5071319;28;20028;-61
2021/12/17 09:18:34;;;;;;;9.82;3.78;;;;;;;;;;5071354;28;20474;-61
2021/12/17 09:21:23;;;;;;;12.35;6.57;;;;;;;;;;5071168;28;20123;-61
2021/12/17 09:24:03;;;;;;;;;;;;;;;;;;5071853;28;20032;-61
2021/12/17 09:26:45;;;;;;;58.83;38.20;;;;;;;;;;5073137;28;20417;-61
2021/12/17 09:29:12;;;;;;;17.60;8.23;;;;;;;;;;5075632;28;20510;-61
2021/12/17 09:31:38;;;;;;;7.20;3.78;;;;;;;;;;5075330;28;20040;-61
2021/12/17 09:34:03;;;;;;;11.38;5.43;;;;;;;;;;5076218;28;20037;-61
2021/12/17 09:36:29;;;;;;;17.17;8.57;;;;;;;;;;5076667;28;20119;-61
2021/12/17 09:38:54;;;;;;;9.63;4.53;;;;;;;;;;5075359;28;20035;-61
2021/12/17 09:41:20;;;;;;;7.70;3.78;;;;;;;;;;5076324;28;20047;-61
2021/12/17 09:43:47;;;;;;;45.50;33.42;;;;;;;;;;5076280;28;20037;-61
2021/12/17 09:46:12;;;;;;;98.10;65.40;;;;;;;;;;5076417;28;20040;-61
2021/12/17 09:48:38;;;;;;;16.23;7.57;;;;;;;;;;5076180;28;20037;-61
2021/12/17 09:51:04;;;;;;;14.15;8.18;;;;;;;;;;5076090;28;20035;-61
2021/12/17 09:53:30;;;;;;;19.65;13.52;;;;;;;;;;5074680;28;20036;-61
2021/12/17 09:55:56;;;;;;;7.85;3.17;;;;;;;;;;5076255;28;20383;-61
2021/12/17 09:58:22;;;;;;;9.13;3.75;;;;;;;;;;5074623;28;20040;-61
2021/12/17 10:00:47;;;;;;;10.20;6.70;;;;;;;;;;5075858;28;20043;-61
2021/12/17 10:03:13;;;;;;;9.52;5.05;;;;;;;;;;5076210;28;20037;-61
2021/12/17 10:05:39;;;;;;;8.52;4.50;;;;;;;;;;5075965;28;20099;-61
2021/12/17 10:08:09;;;;;;;9.27;4.97;;;;;;;;;;5076050;28;20394;-61
2021/12/17 10:10:39;;;;;;;7.25;4.30;;;;;;;;;;5075802;28;20033;-61
2021/12/17 10:13:13;;;;;;;11.27;4.22;;;;;;;;;;5075994;28;20484;-61
2021/12/17 10:15:40;;;;;;;9.18;3.60;;;;;;;;;;5075860;28;20033;-61
2021/12/17 10:18:05;;;;;;;6.82;3.67;;;;;;;;;;5075328;28;20036;-61
2021/12/17 10:20:33;;;;;;;8.20;4.53;;;;;;;;;;5074286;28;20044;-61
2021/12/17 10:23:01;;;;;;;9.45;3.80;;;;;;;;;;5075533;28;20025;-61
2021/12/17 10:25:28;;;;;;;101.70;34.58;;;;;;;;;;5075573;28;20040;-62
2021/12/17 10:27:59;;;;;;;23.02;12.45;;;;;;;;;;5075075;28;20048;-62
2021/12/17 10:30:25;;;;;;;8.38;4.32;;;;;;;;;;5075736;28;20052;-62
2021/12/17 10:32:54;;;;;;;9.52;4.25;;;;;;;;;;5075753;28;20036;-61
2021/12/17 10:35:21;;;;;;;9.23;5.68;;;;;;;;;;5075617;28;20036;-61
2021/12/17 10:37:51;;;;;;;13.55;4.95;;;;;;;;;;5074573;28;20028;-61
2021/12/17 10:40:20;;;;;;;9.60;4.85;;;;;;;;;;5075172;28;20036;-61
2021/12/17 10:42:55;;;;;;;10.60;4.72;;;;;;;;;;5075257;28;20056;-61
2021/12/17 10:45:29;;;;;;;8.48;4.35;;;;;;;;;;5075387;28;20097;-61
2021/12/17 10:48:27;;;;;;;11.52;4.90;;;;;;;;;;5075103;28;20138;-61
2021/12/17 10:51:17;;;;;;;7.82;4.10;;;;;;;;;;5074928;28;20532;-61
2021/12/17 10:53:53;;;;;;;7.80;4.70;;;;;;;;;;5075370;28;20040;-61
2021/12/17 10:56:19;;;;;;;20.20;9.15;;;;;;;;;;5074897;28;20032;-61
2021/12/17 10:58:55;;;;;;;7.63;5.03;;;;;;;;;;5074997;28;20020;-61
2021/12/17 11:01:27;;;;;;;20.92;12.52;;;;;;;;;;5075081;28;20052;-62
2021/12/17 11:04:02;;;;;;;19.48;9.30;;;;;;;;;;5075170;28;20066;-62
2021/12/17 11:06:40;;;;;;;14.57;7.03;;;;;;;;;;5074953;28;20060;-62
2021/12/17 11:09:05;;;;;;;29.00;15.30;;;;;;;;;;5057059;28;20036;-61
2021/12/17 11:11:33;;;;;;;13.32;7.90;;;;;;;;;;5074807;28;20386;-61
2021/12/17 11:14:00;;;;;;;10.73;5.15;;;;;;;;;;5074930;28;20036;-61
2021/12/17 11:16:30;;;;;;;9.82;4.43;;;;;;;;;;5074101;28;20032;-61
2021/12/17 11:18:56;;;;;;;17.27;11.30;;;;;;;;;;5074252;28;20039;-61
2021/12/17 11:21:22;;;;;;;13.18;6.30;;;;;;;;;;5074324;28;20020;-61
2021/12/17 11:23:48;;;;;;;12.10;5.20;;;;;;;;;;5074434;28;20135;-61
2021/12/17 11:26:14;;;;;;;7.05;4.85;;;;;;;;;;5074240;28;20087;-62
2021/12/17 11:28:40;;;;;;;11.65;5.43;;;;;;;;;;5074579;28;20044;-61
2021/12/17 11:31:06;;;;;;;7.03;4.45;;;;;;;;;;5074469;28;20047;-61
2021/12/17 11:33:32;;;;;;;8.82;4.60;;;;;;;;;;5074443;28;20119;-61
2021/12/17 11:35:57;;;;;;;7.63;4.28;;;;;;;;;;5074493;28;20039;-61
2021/12/17 11:38:40;;;;;;;7.07;4.53;;;;;;;;;;5074306;28;20032;-61
2021/12/17 11:41:14;;;;;;;8.27;3.80;;;;;;;;;;5074498;28;20081;-61
2021/12/17 11:43:51;;;;;;;9.35;4.65;;;;;;;;;;5074386;28;20040;-61
2021/12/17 11:46:23;;;;;;;9.23;5.38;;;;;;;;;;5074529;28;20040;-61
2021/12/17 11:48:51;;;;;;;9.85;5.80;;;;;;;;;;5074067;28;20544;-61
2021/12/17 11:51:17;;;;;;;10.98;4.80;;;;;;;;;;5072437;28;20064;-61
2021/12/17 11:53:52;;;;;;;11.75;5.32;;;;;;;;;;5074041;28;20039;-61
2021/12/17 11:56:30;;;;;;;6.10;3.40;;;;;;;;;;5072805;28;20029;-61
2021/12/17 11:58:56;;;;;;;8.95;4.47;;;;;;;;;;5074085;28;20032;-61
2021/12/17 12:01:40;;;;;;;7.32;3.85;;;;;;;;;;5073919;28;20490;-61
2021/12/17 12:04:38;;;;;;;10.93;4.32;;;;;;;;;;5072771;28;20037;-61
2021/12/17 12:07:08;;;;;;;6.32;4.10;;;;;;;;;;5056310;28;20394;-61
2021/12/17 12:09:56;;;;;;;21.45;10.02;;;;;;;;;;5074367;28;20035;-61
2021/12/17 12:12:23;;;;;;;77.68;33.80;;;;;;;;;;5074285;28;20049;-61
2021/12/17 12:14:48;;;;;;;98.88;36.63;;;;;;;;;;5071059;28;20382;-61
2021/12/17 12:17:34;;;;;;;78.03;28.35;;;;;;;;;;5071832;28;20036;-61
2021/12/17 12:19:59;;;;;;;27.65;13.07;;;;;;;;;;5073258;28;20475;-61
2021/12/17 12:22:31;;;;;;;16.20;7.30;;;;;;;;;;5073645;28;20071;-61
2021/12/17 12:25:15;;;;;;;241.95;99.60;;;;;;;;;;5072339;28;20405;-61
2021/12/17 12:27:46;;;;;;;8.60;4.28;;;;;;;;;;5072871;28;20033;-61
2021/12/17 12:30:13;;;;;;;26.25;10.75;;;;;;;;;;5072116;28;20131;-61
2021/12/17 12:32:59;;;;;;;601.42;238.55;;;;;;;;;;5073215;28;20546;-61
2021/12/17 12:35:24;;;;;;;145.32;53.85;;;;;;;;;;5073302;28;20036;-61
2021/12/17 12:38:09;;;;;;;12.80;6.70;;;;;;;;;;5073450;28;20039;-61
2021/12/17 12:40:42;;;;;;;9.30;4.75;;;;;;;;;;5073384;28;20040;-61
2021/12/17 12:43:23;;;;;;;245.73;94.68;;;;;;;;;;5073355;28;20032;-61
2021/12/17 12:45:48;;;;;;;258.10;118.10;;;;;;;;;;5073404;28;20033;-61
2021/12/17 12:48:26;;;;;;;135.70;68.70;;;;;;;;;;5073341;28;20032;-61
2021/12/17 12:51:11;;;;;;;13.52;7.38;;;;;;;;;;5073375;28;20135;-61
2021/12/17 12:53:37;;;;;;;82.80;49.35;;;;;;;;;;5073456;28;20037;-61
2021/12/17 12:56:05;;;;;;;15.45;10.88;;;;;;;;;;5073296;28;20077;-61
2021/12/17 12:58:35;;;;;;;16.00;8.52;;;;;;;;;;5073139;28;20032;-61
2021/12/17 13:01:02;;;;;;;79.40;49.47;;;;;;;;;;5072765;28;20123;-61
2021/12/17 13:03:29;;;;;;;18.10;11.40;;;;;;;;;;5073005;28;20269;-61
2021/12/17 13:05:55;;;;;;;19.13;10.43;;;;;;;;;;5071913;28;20050;-61
2021/12/17 13:08:21;;;;;;;14.20;8.25;;;;;;;;;;5072976;28;20402;-61
2021/12/17 13:10:54;;;;;;;10.88;6.07;;;;;;;;;;5072946;28;20106;-61
2021/12/17 13:16:14;;;;;;;10.57;4.68;;;;;;;;;;5072972;28;20405;-61
2021/12/17 13:23:49;;;;;;;9.95;4.97;;;;;;;;;;5072890;28;20041;-61
2021/12/17 13:26:16;;;;;;;9.50;5.13;;;;;;;;;;5071515;28;20092;-62
2021/12/17 13:28:47;;;;;;;9.35;4.63;;;;;;;;;;5072867;28;20494;-61
2021/12/17 13:31:28;;;;;;;10.13;4.97;;;;;;;;;;5071659;28;20044;-61
2021/12/17 13:33:54;;;;;;;;;;;;;;;;;;5073249;28;20044;-61
2021/12/17 13:36:19;;;;;;;9.15;4.63;;;;;;;;;;5072940;28;20369;-61
2021/12/17 13:38:44;;;;;;;11.57;4.78;;;;;;;;;;5071516;28;20044;-61
2021/12/17 13:41:10;;;;;;;7.32;4.05;;;;;;;;;;5072765;28;20083;-61
2021/12/17 13:43:41;;;;;;;5.45;3.17;;;;;;;;;;5072689;28;20041;-61
2021/12/17 13:46:07;;;;;;;10.77;4.72;;;;;;;;;;5072793;28;20035;-61
2021/12/17 13:48:32;;;;;;;6.95;3.90;;;;;;;;;;5071435;28;20036;-61
2021/12/17 13:50:58;;;;;;;8.60;4.10;;;;;;;;;;5072571;28;20036;-61
2021/12/17 13:53:23;;;;;;;12.85;7.43;;;;;;;;;;5071520;28;20029;-61
2021/12/17 13:55:50;;;;;;;8.38;4.53;;;;;;;;;;5072643;28;20070;-61
2021/12/17 13:58:18;;;;;;;9.35;4.32;;;;;;;;;;5072715;28;20044;-61
2021/12/17 14:00:46;;;;;;;8.35;4.78;;;;;;;;;;5072673;28;20041;-61
2021/12/17 14:03:14;;;;;;;13.70;6.28;;;;;;;;;;5072612;28;20038;-61
2021/12/17 14:05:43;;;;;;;9.82;4.80;;;;;;;;;;5072584;28;20036;-61
2021/12/17 14:08:10;;;;;;;12.98;6.50;;;;;;;;;;5072191;28;20028;-61
2021/12/17 14:10:36;;;;;;;10.60;5.28;;;;;;;;;;5071227;28;20496;-61
2021/12/17 14:13:02;;;;;;;14.30;5.63;;;;;;;;;;5072120;28;20028;-61
2021/12/17 14:15:29;;;;;;;10.52;5.18;;;;;;;;;;5074754;28;20469;-61
2021/12/17 14:17:56;;;;;;;11.90;5.72;;;;;;;;;;5075933;28;20033;-61
2021/12/17 14:20:23;;;;;;;11.25;6.75;;;;;;;;;;5074612;28;20090;-61
2021/12/17 14:22:49;;;;;;;7.97;4.80;;;;;;;;;;5075810;28;20040;-61
2021/12/17 14:25:33;;;;;;;8.02;5.10;;;;;;;;;;5075779;28;20045;-61
2021/12/17 14:28:00;;;;;;;9.48;5.15;;;;;;;;;;5074106;28;20050;-61
2021/12/17 14:30:33;;;;;;;14.82;7.35;;;;;;;;;;5075816;28;20067;-61
2021/12/17 14:33:04;;;;;;;19.30;9.63;;;;;;;;;;5075770;28;20072;-61
2021/12/17 14:35:46;;;;;;;134.75;39.85;;;;;;;;;;5075691;28;20043;-61
2021/12/17 14:38:12;;;;;;;30.38;11.10;;;;;;;;;;5075627;28;20482;-61
2021/12/17 14:40:49;;;;;;;11.07;5.93;;;;;;;;;;5074428;28;20029;-61
2021/12/17 14:43:22;;;;;;;10.60;5.88;;;;;;;;;;5075549;28;20475;-61
2021/12/17 14:45:58;;;;;;;12.35;6.82;;;;;;;;;;5075448;28;20075;-61
2021/12/17 14:48:35;;;;;;;19.15;9.88;;;;;;;;;;5075574;28;20036;-61
2021/12/17 15:02:25;;;;;;;15.32;8.77;;;;;;;;;;5075286;28;20044;-61
2021/12/17 15:04:50;;;;;;;15.65;8.95;;;;;;;;;;5073606;28;20045;-61
2021/12/17 15:07:18;;;;;;;14.07;8.70;;;;;;;;;;5074709;28;20043;-61
2021/12/17 15:09:45;;;;;;;12.63;7.10;;;;;;;;;;5056898;28;20037;-61
2021/12/17 15:12:25;;;;;;;11.98;6.85;;;;;;;;;;5074563;28;20029;-61
2021/12/17 15:14:51;;;;;;;14.23;7.85;;;;;;;;;;5074782;28;20039;-61
2021/12/17 15:17:17;;;;;;;15.27;8.40;;;;;;;;;;5074815;28;20044;-61
2021/12/17 15:19:42;;;;;;;16.70;10.50;;;;;;;;;;5074477;28;20368;-61
2021/12/17 15:22:08;;;;;;;8.85;5.25;;;;;;;;;;5074573;28;20064;-61
2021/12/17 15:24:33;;;;;;;14.98;7.15;;;;;;;;;;5073203;28;20045;-61
2021/12/17 15:26:59;;;;;;;13.07;7.50;;;;;;;;;;5074005;28;20034;-61
2021/12/17 15:29:24;;;;;;;15.27;7.78;;;;;;;;;;5056649;28;20106;-61
2021/12/17 15:31:51;;;;;;;15.23;8.57;;;;;;;;;;5074319;28;20459;-61
2021/12/17 15:34:17;;;;;;;15.82;9.57;;;;;;;;;;5073926;28;20086;-61
2021/12/17 15:36:43;;;;;;;13.65;8.40;;;;;;;;;;5074462;28;20032;-61
2021/12/17 15:39:12;;;;;;;36.10;20.27;;;;;;;;;;5074162;28;20032;-61
2021/12/17 15:41:42;;;;;;;33.10;17.75;;;;;;;;;;5074318;28;20040;-61
2021/12/17 15:44:09;;;;;;;12.10;7.25;;;;;;;;;;5073780;28;20041;-61
2021/12/17 15:46:34;;;;;;;15.82;9.00;;;;;;;;;;5074009;28;20029;-61
2021/12/17 15:49:00;;;;;;;24.30;11.07;;;;;;;;;;5074254;28;20040;-61
2021/12/17 15:51:25;;;;;;;35.00;17.60;;;;;;;;;;5074015;28;20028;-61
2021/12/17 15:53:52;;;;;;;20.42;11.63;;;;;;;;;;5073632;28;20119;-61
2021/12/17 15:56:17;;;;;;;12.13;7.78;;;;;;;;;;5070767;28;20027;-61
2021/12/17 15:58:43;;;;;;;27.92;13.55;;;;;;;;;;5072137;28;20032;-61
2021/12/17 16:01:08;;;;;;;19.98;9.98;;;;;;;;;;5072366;28;20390;-61
2021/12/17 16:03:36;;;;;;;16.98;9.48;;;;;;;;;;5071651;28;20051;-61
2021/12/17 16:06:07;;;;;;;20.52;11.57;;;;;;;;;;5072284;28;20479;-61
2021/12/17 16:08:34;;;;;;;18.25;10.27;;;;;;;;;;5080140;28;20094;-61
2021/12/17 16:11:15;;;;;;;22.15;12.75;;;;;;;;;;5070550;28;20043;-61
2021/12/17 16:21:52;;;;;;;17.40;8.55;;;;;;;;;;5069639;28;20053;-61
2021/12/17 16:24:19;;;;;;;17.83;9.65;;;;;;;;;;5085417;28;20037;-61
2021/12/17 16:26:45;;;;;;;21.27;10.73;;;;;;;;;;5085409;28;20102;-61
2021/12/17 16:29:15;;;;;;;16.23;8.82;;;;;;;;;;5069142;28;20040;-61
2021/12/17 16:31:40;;;;;;;21.48;10.80;;;;;;;;;;5085515;28;20101;-61
2021/12/17 16:34:06;;;;;;;29.92;12.10;;;;;;;;;;5070045;28;20032;-61
2021/12/17 16:36:32;;;;;;;15.40;7.32;;;;;;;;;;5069567;28;20040;-61
2021/12/17 16:38:58;;;;;;;14.60;7.32;;;;;;;;;;5070090;28;20036;-61
2021/12/17 16:41:24;;;;;;;31.33;11.80;;;;;;;;;;5070042;28;20048;-61
2021/12/17 16:43:57;;;;;;;28.33;10.40;;;;;;;;;;5069825;28;20028;-61
2021/12/17 16:48:49;;;;;;;23.40;9.55;;;;;;;;;;5069733;28;20119;-61
2021/12/17 16:51:16;;;;;;;21.30;9.77;;;;;;;;;;5069556;28;20185;-61
2021/12/17 16:53:43;;;;;;;17.25;8.90;;;;;;;;;;5069294;28;20025;-60
2021/12/17 16:56:09;;;;;;;22.10;9.90;;;;;;;;;;5069988;28;20052;-61
2021/12/17 16:58:34;;;;;;;24.42;11.57;;;;;;;;;;5070003;28;20025;-61
2021/12/17 17:01:00;;;;;;;25.80;13.00;;;;;;;;;;5069946;28;20490;-61
2021/12/17 17:03:25;;;;;;;22.33;11.60;;;;;;;;;;5069019;28;20039;-61
2021/12/17 17:05:51;;;;;;;32.53;16.48;;;;;;;;;;5068468;28;20045;-61
2021/12/17 17:08:16;;;;;;;29.65;14.52;;;;;;;;;;5069483;28;20471;-61
2021/12/17 17:10:50;;;;;;;17.52;9.05;;;;;;;;;;5069444;28;20483;-61
2021/12/17 17:13:15;;;;;;;22.08;10.35;;;;;;;;;;5067872;28;20143;-61
2021/12/17 17:15:41;;;;;;;18.27;9.25;;;;;;;;;;5068088;28;20343;-61
2021/12/17 17:18:07;;;;;;;23.38;10.73;;;;;;;;;;5069348;28;20048;-61
2021/12/17 17:20:32;;;;;;;32.35;16.27;;;;;;;;;;5069309;28;20071;-61
2021/12/17 17:22:58;;;;;;;25.92;12.05;;;;;;;;;;5069396;28;20040;-61
2021/12/17 17:25:24;;;;;;;15.73;7.65;;;;;;;;;;5069280;28;20041;-61
2021/12/17 17:27:50;;;;;;;18.55;7.25;;;;;;;;;;5067445;28;20114;-61
2021/12/17 17:30:16;;;;;;;19.48;8.48;;;;;;;;;;5069533;28;20048;-61
2021/12/17 17:32:42;;;;;;;15.68;7.32;;;;;;;;;;5069171;28;20132;-61
2021/12/17 17:35:08;;;;;;;15.00;7.07;;;;;;;;;;5069098;28;20032;-61
2021/12/17 17:37:34;;;;;;;19.13;8.93;;;;;;;;;;5069326;28;20166;-61
2021/12/17 17:39:59;;;;;;;16.52;8.35;;;;;;;;;;5069470;28;20036;-61
2021/12/17 17:42:25;;;;;;;14.40;7.57;;;;;;;;;;5069385;28;20043;-61
2021/12/17 17:44:50;;;;;;;16.67;8.55;;;;;;;;;;5069250;28;20478;-60
2021/12/17 17:47:20;;;;;;;25.80;11.68;;;;;;;;;;5070572;28;20048;-61
2021/12/17 17:49:45;;;;;;;20.20;8.15;;;;;;;;;;5072799;28;20471;-61
2021/12/17 17:52:10;;;;;;;8.38;4.90;;;;;;;;;;5073027;28;20051;-61
2021/12/17 17:54:36;;;;;;;16.35;8.52;;;;;;;;;;5072966;28;20040;-61
2021/12/17 17:57:01;;;;;;;24.23;9.13;;;;;;;;;;5072999;28;20059;-61
2021/12/17 17:59:27;;;;;;;20.73;7.45;;;;;;;;;;5071821;28;20029;-60
2021/12/17 18:01:52;;;;;;;30.60;10.32;;;;;;;;;;5072899;28;20037;-61
2021/12/17 18:04:18;;;;;;;12.18;5.93;;;;;;;;;;5071628;28;20112;-61
2021/12/17 18:06:43;;;;;;;11.40;5.43;;;;;;;;;;5072743;28;20075;-61